createdAt,value
2019-05-28T11:50:24.758Z,68.6
2019-05-28T11:51:14.972Z,68.1
2019-05-28T11:52:04.624Z,67.8
2019-05-28T11:52:54.407Z,67.5
2019-05-28T11:53:44.703Z,67.3
2019-05-28T11:54:35.039Z,67.2
2019-05-28T11:55:25.155Z,67
2019-05-28T11:56:15.230Z,66.9
2019-05-28T11:57:04.977Z,66.8
2019-05-28T11:57:55.312Z,66.7
2019-05-28T11:58:45.364Z,66.8
2019-05-28T11:59:35.485Z,66.9
2019-05-28T12:00:25.512Z,67.3
2019-05-28T12:01:36.164Z,67.6
2019-05-28T12:02:55.693Z,67.4
2019-05-28T12:05:16.655Z,67.6
2019-05-28T12:06:06.641Z,67.8
2019-05-28T12:06:56.422Z,67.8
2019-05-28T12:07:46.218Z,67.9
2019-05-28T12:08:36.813Z,68.1
2019-05-28T12:09:26.627Z,68.2
2019-05-28T12:10:16.760Z,68.2
2019-05-28T12:11:07.018Z,68
2019-05-28T12:11:57.080Z,67.6
2019-05-28T12:12:47.159Z,67.3
2019-05-28T12:13:36.995Z,66.9
2019-05-28T12:14:27.277Z,66.8
2019-05-28T12:15:16.792Z,66.8
2019-05-28T12:16:07.487Z,66.8
2019-05-28T12:16:57.189Z,66.8
2019-05-28T12:17:47.559Z,66.6
2019-05-28T12:18:37.589Z,66.4
2019-05-28T12:19:27.123Z,66.4
2019-05-28T12:20:18.414Z,66.3
2019-05-28T12:21:07.786Z,66.1
2019-05-28T12:21:57.860Z,66
2019-05-28T12:22:47.920Z,65.9
2019-05-28T12:23:37.689Z,65.8
2019-05-28T12:24:30.175Z,65.6
2019-05-28T12:25:17.827Z,65.4
2019-05-28T12:26:07.885Z,65.4
2019-05-28T12:26:58.383Z,65.3
2019-05-28T12:27:48.279Z,65.1
2019-05-28T12:28:39.759Z,65
2019-05-28T12:29:28.489Z,64.9
2019-05-28T12:30:19.718Z,64.8
2019-05-28T12:31:08.275Z,64.7
2019-05-28T12:31:59.749Z,64.6
2019-05-28T12:32:48.675Z,64.5
2019-05-28T12:33:38.786Z,64.4
2019-05-28T12:34:28.531Z,64.1
2019-05-28T12:35:31.239Z,63.9
2019-05-28T12:36:58.995Z,63.2
2019-05-28T12:37:51.736Z,62.8
2019-05-28T12:38:38.606Z,62.3
2019-05-28T12:39:29.314Z,62
2019-05-28T12:40:19.091Z,61.6
2019-05-28T12:41:09.057Z,61.3
2019-05-28T12:42:08.279Z,60.9
2019-05-28T12:42:49.162Z,60.9
2019-05-28T12:43:39.513Z,60.4
2019-05-28T12:44:43.614Z,59.9
2019-05-28T12:46:59.786Z,58.9
2019-05-28T12:48:14.023Z,58.7
2019-05-28T12:49:29.683Z,58.1
2019-05-28T12:50:22.105Z,57.8
2019-05-28T12:51:10.085Z,57.6
2019-05-28T12:52:00.201Z,57.3
2019-05-28T12:52:49.957Z,57.1
2019-05-28T12:53:52.768Z,56.8
2019-05-28T12:55:20.226Z,56.3
2019-05-28T12:56:10.526Z,56.1
2019-05-28T12:57:00.537Z,55.9
2019-05-28T12:57:50.666Z,55.7
2019-05-28T12:58:44.749Z,55.5
2019-05-28T12:59:30.743Z,55.3
2019-05-28T13:00:20.818Z,55.2
2019-05-28T13:01:10.873Z,55.2
2019-05-28T13:02:00.919Z,55.4
2019-05-28T13:02:50.730Z,55.7
2019-05-28T13:03:41.511Z,56.2
2019-05-28T13:04:30.879Z,56.8
2019-05-28T13:05:21.207Z,57.6
2019-05-28T13:06:11.252Z,54.8
2019-05-28T13:07:01.322Z,54.2
2019-05-28T13:08:11.408Z,60.2
2019-05-28T13:09:31.488Z,62.1
2019-05-28T13:10:21.348Z,63.5
2019-05-28T13:11:11.626Z,64
2019-05-28T13:12:01.738Z,63.9
2019-05-28T13:12:52.003Z,63.4
2019-05-28T13:13:41.831Z,63.3
2019-05-28T13:14:31.877Z,63.4
2019-05-28T13:15:21.983Z,63.6
2019-05-28T13:16:12.158Z,63.8
2019-05-28T13:17:01.802Z,64.1
2019-05-28T13:17:53.064Z,64.3
2019-05-28T13:18:42.209Z,64.5
2019-05-28T13:19:32.047Z,64.6
2019-05-28T13:20:22.381Z,64.7
2019-05-28T13:21:12.411Z,64.8
2019-05-28T13:22:02.494Z,64.8
2019-05-28T13:22:52.530Z,64.9
2019-05-28T13:23:42.303Z,64.9
2019-05-28T13:24:32.686Z,65.1
2019-05-28T13:25:22.526Z,65.1
2019-05-28T13:26:15.571Z,65.1
2019-05-28T13:27:19.708Z,65.2
2019-05-28T13:28:42.722Z,65.3
2019-05-28T13:29:33.025Z,65.3
2019-05-28T13:30:23.093Z,65.3
2019-05-28T13:31:13.185Z,65.4
2019-05-28T13:32:09.485Z,65.4
2019-05-28T13:33:43.067Z,65.4
2019-05-28T13:34:33.476Z,65.3
2019-05-28T13:35:23.197Z,65.4
2019-05-28T13:36:13.006Z,65.3
2019-05-28T13:37:03.654Z,65.3
2019-05-28T13:37:53.521Z,65.3
2019-05-28T13:38:44.494Z,65.3
2019-05-28T13:39:33.978Z,65.3
2019-05-28T13:40:23.903Z,65.3
2019-05-28T13:41:13.671Z,65.3
2019-05-28T13:42:04.001Z,65.3
2019-05-28T13:42:54.014Z,65.3
2019-05-28T13:43:44.167Z,65.3
2019-05-28T13:44:33.761Z,65.3
2019-05-28T13:45:24.248Z,65.3
2019-05-28T13:46:14.046Z,65.3
2019-05-28T13:47:04.477Z,65.2
2019-05-28T13:47:54.187Z,65.2
2019-05-28T13:48:44.324Z,65.1
2019-05-28T13:49:34.348Z,65.1
2019-05-28T13:50:24.392Z,65.1
2019-05-28T13:51:14.768Z,65.1
2019-05-28T13:52:13.853Z,65
2019-05-28T13:53:45.016Z,64.9
2019-05-28T13:54:34.708Z,64.9
2019-05-28T13:55:25.057Z,64.8
2019-05-28T13:56:15.125Z,64.8
2019-05-28T13:57:04.613Z,64.7
2019-05-28T13:57:54.981Z,64.6
2019-05-28T13:58:45.178Z,64.5
2019-05-28T13:59:35.083Z,64.4
2019-05-28T14:00:25.223Z,64.4
2019-05-28T14:01:15.485Z,64.4
2019-05-28T14:02:05.582Z,64.4
2019-05-28T14:02:55.610Z,64.3
2019-05-28T14:03:45.134Z,64.3
2019-05-28T14:06:16.512Z,64.1
2019-05-28T14:07:06.027Z,64.1
2019-05-28T14:07:56.629Z,64.1
2019-05-28T14:08:49.037Z,64
2019-05-28T14:09:36.511Z,63.9
2019-05-28T14:10:26.844Z,63.9
2019-05-28T14:11:16.897Z,63.8
2019-05-28T14:12:06.425Z,63.8
2019-05-28T14:12:57.102Z,63.7
2019-05-28T14:13:47.087Z,63.7
2019-05-28T14:14:37.133Z,63.5
2019-05-28T14:15:27.221Z,63.3
2019-05-28T14:16:17.280Z,63.3
2019-05-28T14:17:07.428Z,63.1
2019-05-28T14:17:56.953Z,63.1
2019-05-28T14:18:47.480Z,63.1
2019-05-28T14:19:37.527Z,62.9
2019-05-28T14:20:27.598Z,62.9
2019-05-28T14:21:17.654Z,62.8
2019-05-28T14:22:08.231Z,62.8
2019-05-28T14:22:57.535Z,62.7
2019-05-28T14:23:47.840Z,62.6
2019-05-28T14:24:38.037Z,62.6
2019-05-28T14:25:27.450Z,62.4
2019-05-28T14:26:18.080Z,62.4
2019-05-28T14:27:08.150Z,62.3
2019-05-28T14:27:58.167Z,62.3
2019-05-28T14:28:48.245Z,62.2
2019-05-28T14:29:38.306Z,62.1
2019-05-28T14:30:28.378Z,62.1
2019-05-28T14:31:18.155Z,61.9
2019-05-28T14:32:08.495Z,61.9
2019-05-28T14:32:58.293Z,61.8
2019-05-28T14:33:48.647Z,61.7
2019-05-28T14:34:38.421Z,61.6
2019-05-28T14:35:28.202Z,61.6
2019-05-28T14:36:18.818Z,61.4
2019-05-28T14:37:08.904Z,61.4
2019-05-28T14:37:58.947Z,61.3
2019-05-28T14:39:05.216Z,61.2
2019-05-28T14:40:29.471Z,61.1
2019-05-28T14:41:19.364Z,60.9
2019-05-28T14:42:09.267Z,60.9
2019-05-28T14:42:59.331Z,60.8
2019-05-28T14:43:48.857Z,60.7
2019-05-28T14:44:44.109Z,60.6
2019-05-28T14:45:30.274Z,60.5
2019-05-28T14:46:19.434Z,60.4
2019-05-28T14:47:09.510Z,60.4
2019-05-28T14:47:59.718Z,60.3
2019-05-28T14:48:49.799Z,60.2
2019-05-28T14:49:39.851Z,60.1
2019-05-28T14:50:29.626Z,60.1
2019-05-28T14:51:19.701Z,59.9
2019-05-28T14:52:09.760Z,59.9
2019-05-28T14:53:00.134Z,59.8
2019-05-28T14:53:49.898Z,59.7
2019-05-28T14:54:39.966Z,59.6
2019-05-28T14:55:30.296Z,59.6
2019-05-28T14:56:19.813Z,59.4
2019-05-28T14:57:10.454Z,59.4
2019-05-28T14:58:06.226Z,59.3
2019-05-28T14:58:50.598Z,59.2
2019-05-28T14:59:40.338Z,59.1
2019-05-28T15:00:30.690Z,59.1
2019-05-28T15:01:20.475Z,59
2019-05-28T15:02:10.614Z,58.9
2019-05-28T15:03:00.903Z,58.8
2019-05-28T15:03:50.937Z,58.8
2019-05-28T15:04:41.072Z,58.6
2019-05-28T15:06:21.158Z,58.4
2019-05-28T15:07:11.208Z,58.4
2019-05-28T15:08:00.982Z,58.3
2019-05-28T15:08:51.343Z,58.2
2019-05-28T15:09:41.539Z,58.1
2019-05-28T15:10:31.560Z,58
2019-05-28T15:11:21.542Z,57.9
2019-05-28T15:12:11.387Z,57.8
2019-05-28T15:13:51.735Z,57.7
2019-05-28T15:14:41.524Z,57.6
2019-05-28T15:15:37.458Z,57.5
2019-05-28T15:16:21.962Z,57.4
2019-05-28T15:17:11.442Z,57.3
2019-05-28T15:18:02.053Z,57.3
2019-05-28T15:18:51.574Z,57.1
2019-05-28T15:19:42.264Z,57.1
2019-05-28T15:20:31.949Z,56.9
2019-05-28T15:21:22.044Z,56.9
2019-05-28T15:22:12.302Z,56.8
2019-05-28T15:23:02.416Z,56.7
2019-05-28T15:23:52.593Z,56.6
2019-05-28T15:24:42.559Z,56.5
2019-05-28T15:25:32.356Z,56.4
2019-05-28T15:26:22.414Z,56.3
2019-05-28T15:27:12.213Z,56.3
2019-05-28T15:28:02.586Z,55.9
2019-05-28T15:28:52.876Z,55.6
2019-05-28T15:29:42.817Z,55.4
2019-05-28T15:30:33.022Z,55.1
2019-05-28T15:31:22.811Z,54.9
2019-05-28T15:32:12.908Z,54.6
2019-05-28T15:33:03.577Z,54.3
2019-05-28T15:33:53.268Z,53.9
2019-05-28T15:34:43.403Z,53.6
2019-05-28T15:35:32.850Z,53.3
2019-05-28T15:36:23.477Z,53
2019-05-28T15:37:13.271Z,52.8
2019-05-28T15:38:03.329Z,52.4
2019-05-28T15:38:53.676Z,52.1
2019-05-28T15:39:43.486Z,51.9
2019-05-28T15:40:33.806Z,51.6
2019-05-28T15:41:23.864Z,51.3
2019-05-28T15:42:21.946Z,51
2019-05-28T15:43:07.803Z,50.7
2019-05-28T15:43:53.776Z,50.4
2019-05-28T15:44:43.849Z,50.3
2019-05-28T15:45:34.182Z,50
2019-05-28T15:46:24.002Z,49.8
2019-05-28T15:47:14.321Z,49.5
2019-05-28T15:48:04.393Z,49.3
2019-05-28T15:48:54.173Z,49.1
2019-05-28T15:49:44.508Z,48.8
2019-05-28T15:50:34.086Z,48.6
2019-05-28T15:51:24.370Z,48.4
2019-05-28T15:52:14.420Z,48.1
2019-05-28T15:53:04.770Z,47.9
2019-05-28T15:53:54.847Z,47.8
2019-05-28T15:54:44.619Z,47.5
2019-05-28T15:55:34.676Z,47.3
2019-05-28T15:56:25.033Z,47.1
2019-05-28T15:57:15.113Z,46.8
2019-05-28T15:58:04.907Z,46.6
2019-05-28T15:58:54.935Z,46.4
2019-05-28T15:59:44.746Z,46.2
2019-05-28T16:00:35.083Z,46
2019-05-28T16:01:25.434Z,45.8
2019-05-28T16:02:15.219Z,45.6
2019-05-28T16:03:05.296Z,45.4
2019-05-28T16:03:55.357Z,45.1
2019-05-28T16:06:16.499Z,44.6
2019-05-28T16:07:06.497Z,44.4
2019-05-28T16:07:56.560Z,44.2
2019-05-28T16:08:46.629Z,44
2019-05-28T16:09:36.415Z,43.8
2019-05-28T16:10:26.201Z,43.6
2019-05-28T16:11:16.547Z,43.4
2019-05-28T16:12:06.650Z,43.2
2019-05-28T16:12:56.944Z,43
2019-05-28T16:13:47.301Z,42.8
2019-05-28T16:14:37.079Z,42.6
2019-05-28T16:15:27.138Z,42.4
2019-05-28T16:16:16.677Z,42.2
2019-05-28T16:17:06.718Z,42
2019-05-28T16:17:57.366Z,41.8
2019-05-28T16:18:47.410Z,41.6
2019-05-28T16:19:37.458Z,41.5
2019-05-28T16:20:27.686Z,41.3
2019-05-28T16:21:17.323Z,41.1
2019-05-28T16:22:07.372Z,40.9
2019-05-28T16:22:57.716Z,40.8
2019-05-28T16:23:47.513Z,40.6
2019-05-28T16:24:37.568Z,40.4
2019-05-28T16:25:27.653Z,40.3
2019-05-28T16:26:17.695Z,40.1
2019-05-28T16:27:08.045Z,39.9
2019-05-28T16:27:57.844Z,39.8
2019-05-28T16:28:47.625Z,39.6
2019-05-28T16:29:38.260Z,39.5
2019-05-28T16:30:28.027Z,39.3
2019-05-28T16:31:18.365Z,39.2
2019-05-28T16:32:08.155Z,39.1
2019-05-28T16:32:58.483Z,38.9
2019-05-28T16:33:48.552Z,38.7
2019-05-28T16:34:38.722Z,38.5
2019-05-28T16:35:28.691Z,38.3
2019-05-28T16:36:18.475Z,38
2019-05-28T16:37:08.814Z,37.8
2019-05-28T16:37:58.909Z,37.5
2019-05-28T16:38:48.663Z,37.3
2019-05-28T16:39:39.007Z,37.1
2019-05-28T16:40:29.083Z,36.9
2019-05-28T16:41:19.156Z,36.8
2019-05-28T16:42:08.940Z,36.6
2019-05-28T16:42:58.982Z,36.4
2019-05-28T16:43:49.334Z,36.3
2019-05-28T16:44:39.394Z,36.1
2019-05-28T16:45:29.178Z,35.9
2019-05-28T16:46:19.669Z,35.8
2019-05-28T16:47:19.882Z,35.6
2019-05-28T16:48:49.437Z,35.4
2019-05-28T16:49:39.598Z,35.3
2019-05-28T16:50:29.877Z,35.1
2019-05-28T16:51:19.897Z,34.9
2019-05-28T16:52:10.044Z,34.8
2019-05-28T16:53:00.041Z,34.7
2019-05-28T16:53:50.107Z,34.6
2019-05-28T16:54:40.179Z,34.4
2019-05-28T16:55:30.252Z,34.3
2019-05-28T16:56:20.304Z,34.2
2019-05-28T16:57:10.107Z,34
2019-05-28T16:58:00.429Z,33.9
2019-05-28T16:58:50.219Z,33.8
2019-05-28T16:59:40.556Z,33.7
2019-05-28T17:00:30.793Z,33.6
2019-05-28T17:01:24.137Z,33.4
2019-05-28T17:02:10.466Z,33.3
2019-05-28T17:03:00.826Z,33.1
2019-05-28T17:03:50.900Z,33.1
2019-05-28T17:04:40.396Z,32.9
2019-05-28T17:05:31.021Z,32.8
2019-05-28T17:06:21.108Z,32.7
2019-05-28T17:07:11.186Z,32.6
2019-05-28T17:08:01.216Z,32.4
2019-05-28T17:08:51.007Z,32.3
2019-05-28T17:09:41.348Z,32.2
2019-05-28T17:10:34.850Z,32.1
2019-05-28T17:11:21.558Z,31.9
2019-05-28T17:12:11.718Z,31.8
2019-05-28T17:13:01.808Z,31.8
2019-05-28T17:13:51.938Z,31.6
2019-05-28T17:14:41.453Z,31.6
2019-05-28T17:15:46.535Z,31.4
2019-05-28T17:17:11.708Z,31.2
2019-05-28T17:18:01.715Z,31.1
2019-05-28T17:18:52.066Z,31
2019-05-28T17:19:46.198Z,30.9
2019-05-28T17:20:32.228Z,30.8
2019-05-28T17:21:24.535Z,30.7
2019-05-28T17:22:12.316Z,30.6
2019-05-28T17:23:02.132Z,30.5
2019-05-28T17:23:52.423Z,30.4
2019-05-28T17:24:42.503Z,30.3
2019-05-28T17:25:32.707Z,30.1
2019-05-28T17:26:22.655Z,30.1
2019-05-28T17:27:12.248Z,29.9
2019-05-28T17:28:02.502Z,29.9
2019-05-28T17:28:52.554Z,29.8
2019-05-28T17:29:42.632Z,29.6
2019-05-28T17:30:32.675Z,29.6
2019-05-28T17:31:23.110Z,29.4
2019-05-28T17:32:12.543Z,29.3
2019-05-28T17:33:03.168Z,29.3
2019-05-28T17:33:53.211Z,29.1
2019-05-28T17:34:43.298Z,29.1
2019-05-28T17:35:33.398Z,28.9
2019-05-28T17:36:23.436Z,28.9
2019-05-28T17:37:13.469Z,28.8
2019-05-28T17:38:03.577Z,28.7
2019-05-28T17:38:53.349Z,28.6
2019-05-28T17:39:43.675Z,28.6
2019-05-28T17:40:49.801Z,28.4
2019-05-28T17:42:13.921Z,28.3
2019-05-28T17:43:03.936Z,28.2
2019-05-28T17:43:53.441Z,28.1
2019-05-28T17:44:47.058Z,28.1
2019-05-28T17:45:33.846Z,27.9
2019-05-28T17:46:24.206Z,27.9
2019-05-28T17:47:14.276Z,27.8
2019-05-28T17:48:04.126Z,27.7
2019-05-28T17:48:54.113Z,27.6
2019-05-28T17:49:44.160Z,27.6
2019-05-28T17:50:34.654Z,27.4
2019-05-28T17:51:24.292Z,27.4
2019-05-28T17:52:14.641Z,27.3
2019-05-28T17:53:04.736Z,27.2
2019-05-28T17:53:54.479Z,27.1
2019-05-28T17:54:44.824Z,27.1
2019-05-28T17:55:34.897Z,27
2019-05-28T17:56:24.693Z,26.9
2019-05-28T17:57:15.310Z,26.8
2019-05-28T17:58:05.100Z,26.7
2019-05-28T17:58:55.341Z,26.6
2019-05-28T17:59:45.217Z,26.6
2019-05-28T18:00:35.051Z,26.5
2019-05-28T18:01:25.370Z,26.4
2019-05-28T18:02:15.401Z,26.3
2019-05-28T18:03:05.461Z,26.3
2019-05-28T18:03:55.279Z,26.2
2019-05-28T18:06:16.384Z,25.9
2019-05-28T18:07:06.442Z,25.9
2019-05-28T18:07:55.971Z,25.8
2019-05-28T18:08:46.290Z,25.8
2019-05-28T18:09:36.625Z,25.7
2019-05-28T18:10:26.688Z,25.6
2019-05-28T18:11:16.475Z,25.5
2019-05-28T18:12:06.818Z,25.4
2019-05-28T18:12:56.900Z,25.4
2019-05-28T18:13:46.945Z,25.3
2019-05-28T18:14:37.046Z,25.3
2019-05-28T18:15:27.086Z,25.2
2019-05-28T18:16:17.167Z,25.1
2019-05-28T18:17:07.245Z,25.1
2019-05-28T18:17:57.260Z,25
2019-05-28T18:18:47.394Z,24.9
2019-05-28T18:19:37.128Z,24.9
2019-05-28T18:20:27.467Z,24.8
2019-05-28T18:21:17.511Z,24.8
2019-05-28T18:22:07.333Z,24.7
2019-05-28T18:22:57.111Z,24.6
2019-05-28T18:23:47.434Z,24.6
2019-05-28T18:24:37.777Z,24.4
2019-05-28T18:25:27.590Z,24.4
2019-05-28T18:26:17.938Z,24.3
2019-05-28T18:27:07.972Z,24.3
2019-05-28T18:27:58.063Z,24.3
2019-05-28T18:28:47.860Z,24.2
2019-05-28T18:29:37.932Z,24.1
2019-05-28T18:30:27.952Z,24.1
2019-05-28T18:31:18.293Z,24
2019-05-28T18:32:08.562Z,23.9
2019-05-28T18:32:58.165Z,23.9
2019-05-28T18:33:48.529Z,23.8
2019-05-28T18:34:38.579Z,23.8
2019-05-28T18:35:28.617Z,23.8
2019-05-28T18:36:18.429Z,23.7
2019-05-28T18:37:08.754Z,23.6
2019-05-28T18:38:05.109Z,23.6
2019-05-28T18:38:48.873Z,23.6
2019-05-28T18:39:38.714Z,23.5
2019-05-28T18:40:28.477Z,23.4
2019-05-28T18:41:23.401Z,23.4
2019-05-28T18:42:09.139Z,23.3
2019-05-28T18:42:59.032Z,23.3
2019-05-28T18:43:49.002Z,23.3
2019-05-28T18:44:39.334Z,23.2
2019-05-28T18:45:29.157Z,23.1
2019-05-28T18:46:19.491Z,23.1
2019-05-28T18:47:09.608Z,23.1
2019-05-28T18:47:59.609Z,23
2019-05-28T18:48:49.660Z,22.9
2019-05-28T18:49:39.746Z,22.9
2019-05-28T18:50:29.516Z,22.9
2019-05-28T18:51:19.859Z,22.8
2019-05-28T18:52:09.918Z,22.8
2019-05-28T18:52:59.715Z,22.8
2019-05-28T18:53:49.796Z,22.7
2019-05-28T18:54:39.833Z,22.6
2019-05-28T18:55:29.918Z,22.6
2019-05-28T18:56:20.263Z,22.6
2019-05-28T18:57:10.317Z,22.6
2019-05-28T18:58:00.739Z,22.5
2019-05-28T18:58:50.508Z,22.4
2019-05-28T18:59:41.277Z,22.4
2019-05-28T19:00:30.015Z,22.4
2019-05-28T19:01:20.104Z,22.3
2019-05-28T19:02:10.160Z,22.3
2019-05-28T19:03:00.758Z,22.3
2019-05-28T19:03:50.831Z,22.3
2019-05-28T19:04:40.896Z,22.2
2019-05-28T19:05:30.707Z,22.1
2019-05-28T19:06:20.775Z,22.1
2019-05-28T19:07:10.547Z,22.1
2019-05-28T19:08:00.894Z,22.1
2019-05-28T19:08:50.961Z,22
2019-05-28T19:09:41.360Z,22
2019-05-28T19:10:31.093Z,21.9
2019-05-28T19:11:38.910Z,21.9
2019-05-28T19:13:01.262Z,21.9
2019-05-28T19:13:51.620Z,21.8
2019-05-28T19:14:41.755Z,21.8
2019-05-28T19:15:31.722Z,21.8
2019-05-28T19:16:21.530Z,21.7
2019-05-28T19:17:11.886Z,21.7
2019-05-28T19:18:02.000Z,21.6
2019-05-28T19:18:54.751Z,21.6
2019-05-28T19:19:41.526Z,21.6
2019-05-28T19:20:32.132Z,21.6
2019-05-28T19:21:22.191Z,21.5
2019-05-28T19:22:11.975Z,21.5
2019-05-28T19:23:02.378Z,21.4
2019-05-28T19:23:52.103Z,21.4
2019-05-28T19:24:42.164Z,21.4
2019-05-28T19:25:32.523Z,21.4
2019-05-28T19:26:22.306Z,21.3
2019-05-28T19:27:12.466Z,21.3
2019-05-28T19:28:02.703Z,21.3
2019-05-28T19:28:52.778Z,21.3
2019-05-28T19:29:42.609Z,21.2
2019-05-28T19:30:32.650Z,21.2
2019-05-28T19:33:03.102Z,21.1
2019-05-28T19:33:53.196Z,21.1
2019-05-28T19:34:43.223Z,21
2019-05-28T19:35:33.280Z,21
2019-05-28T19:36:23.365Z,21
2019-05-28T19:37:13.141Z,20.9
2019-05-28T19:38:03.475Z,20.9
2019-05-28T19:38:53.592Z,20.9
2019-05-28T19:39:43.608Z,20.9
2019-05-28T19:40:33.410Z,20.8
2019-05-28T19:41:23.732Z,20.8
2019-05-28T19:42:13.793Z,20.8
2019-05-28T19:43:03.855Z,20.8
2019-05-28T19:43:53.940Z,20.7
2019-05-28T19:44:43.997Z,20.7
2019-05-28T19:45:33.786Z,20.6
2019-05-28T19:46:23.578Z,20.6
2019-05-28T19:47:17.831Z,20.6
2019-05-28T19:48:03.987Z,20.6
2019-05-28T19:48:54.322Z,20.5
2019-05-28T19:49:44.386Z,20.5
2019-05-28T19:50:34.465Z,20.4
2019-05-28T19:51:24.546Z,20.4
2019-05-28T19:52:14.570Z,20.4
2019-05-28T19:53:04.632Z,20.4
2019-05-28T19:53:54.719Z,20.3
2019-05-28T19:54:44.799Z,20.3
2019-05-28T19:55:34.275Z,20.3
2019-05-28T19:56:24.610Z,20.3
2019-05-28T19:57:14.970Z,20.2
2019-05-28T19:58:05.094Z,20.2
2019-05-28T19:58:55.081Z,20.1
2019-05-28T19:59:45.206Z,20.1
2019-05-28T20:00:34.943Z,20.1
2019-05-28T20:01:25.029Z,20
2019-05-28T20:02:14.801Z,20
2019-05-28T20:03:05.437Z,19.9
2019-05-28T20:03:55.480Z,19.9
2019-05-28T20:04:45.534Z,19.9
2019-05-28T20:05:35.631Z,19.9
2019-05-28T20:06:25.656Z,19.8
2019-05-28T20:07:15.206Z,19.8
2019-05-28T20:08:05.560Z,19.8
2019-05-28T20:08:55.856Z,19.8
2019-05-28T20:09:45.719Z,19.8
2019-05-28T20:10:35.721Z,19.7
2019-05-28T20:11:26.048Z,19.6
2019-05-28T20:12:15.564Z,19.6
2019-05-28T20:13:05.633Z,19.6
2019-05-28T20:13:55.706Z,19.6
2019-05-28T20:14:46.328Z,19.6
2019-05-28T20:15:36.373Z,19.5
2019-05-28T20:16:26.163Z,19.4
2019-05-28T20:17:16.273Z,19.4
2019-05-28T20:18:06.349Z,19.4
2019-05-28T20:18:57.210Z,19.4
2019-05-28T20:19:47.848Z,19.4
2019-05-28T20:20:36.491Z,19.3
2019-05-28T20:21:26.816Z,19.3
2019-05-28T20:22:16.882Z,19.3
2019-05-28T20:23:06.675Z,19.2
2019-05-28T20:23:57.943Z,19.2
2019-05-28T20:24:48.316Z,19.2
2019-05-28T20:25:36.867Z,19.1
2019-05-28T20:26:26.930Z,19.1
2019-05-28T20:27:17.009Z,19.1
2019-05-28T20:28:07.057Z,19
2019-05-28T20:29:09.632Z,19
2019-05-28T20:30:37.537Z,18.9
2019-05-28T20:31:27.314Z,18.9
2019-05-28T20:32:17.397Z,18.9
2019-05-28T20:33:09.894Z,18.8
2019-05-28T20:33:58.987Z,18.8
2019-05-28T20:34:47.860Z,18.8
2019-05-28T20:35:37.921Z,18.8
2019-05-28T20:38:13.619Z,18.6
2019-05-28T20:38:57.894Z,18.6
2019-05-28T20:39:47.967Z,18.6
2019-05-28T20:40:37.811Z,18.6
2019-05-28T20:41:28.089Z,18.6
2019-05-28T20:42:28.819Z,18.5
2019-05-28T20:43:09.993Z,18.5
2019-05-28T20:43:58.559Z,18.4
2019-05-28T20:44:48.703Z,18.4
2019-05-28T20:45:38.442Z,18.4
2019-05-28T20:46:28.763Z,18.4
2019-05-28T20:47:18.821Z,18.3
2019-05-28T20:48:11.261Z,18.3
2019-05-28T20:48:58.692Z,18.3
2019-05-28T20:49:48.460Z,18.2
2019-05-28T20:50:38.529Z,18.2
2019-05-28T20:51:28.868Z,18.2
2019-05-28T20:52:18.961Z,18.1
2019-05-28T20:53:09.008Z,18.1
2019-05-28T20:53:59.338Z,18.1
2019-05-28T20:54:51.396Z,18.1
2019-05-28T20:55:38.913Z,18.1
2019-05-28T20:56:29.264Z,18.1
2019-05-28T20:57:19.586Z,18
2019-05-28T20:58:09.663Z,17.9
2019-05-28T20:59:02.745Z,17.9
2019-05-28T20:59:51.453Z,17.9
2019-05-28T21:00:39.581Z,17.9
2019-05-28T21:01:29.916Z,17.9
2019-05-28T21:02:20.816Z,17.9
2019-05-28T21:03:10.048Z,17.8
2019-05-28T21:03:59.833Z,17.8
2019-05-28T21:04:52.365Z,17.8
2019-05-28T21:05:40.244Z,17.8
2019-05-28T21:06:30.317Z,17.8
2019-05-28T21:07:20.090Z,17.7
2019-05-28T21:08:09.894Z,17.7
2019-05-28T21:09:00.245Z,17.7
2019-05-28T21:09:52.646Z,17.6
2019-05-28T21:10:40.362Z,17.6
2019-05-28T21:11:30.676Z,17.6
2019-05-28T21:12:20.478Z,17.6
2019-05-28T21:13:10.816Z,17.6
2019-05-28T21:14:00.332Z,17.6
2019-05-28T21:14:54.772Z,17.5
2019-05-28T21:15:41.012Z,17.5
2019-05-28T21:16:30.841Z,17.5
2019-05-28T21:17:20.869Z,17.4
2019-05-28T21:18:10.955Z,17.4
2019-05-28T21:19:01.269Z,17.4
2019-05-28T21:19:53.257Z,17.4
2019-05-28T21:20:41.414Z,17.4
2019-05-28T21:21:31.466Z,17.4
2019-05-28T21:22:28.281Z,17.3
2019-05-28T21:23:11.586Z,17.3
2019-05-28T21:24:01.663Z,17.3
2019-05-28T21:24:54.534Z,17.3
2019-05-28T21:25:41.514Z,17.3
2019-05-28T21:26:31.951Z,17.3
2019-05-28T21:27:21.923Z,17.3
2019-05-28T21:28:11.711Z,17.2
2019-05-28T21:29:01.809Z,17.2
2019-05-28T21:29:52.598Z,17.1
2019-05-28T21:30:42.189Z,17.2
2019-05-28T21:31:32.180Z,17.1
2019-05-28T21:32:22.028Z,17.1
2019-05-28T21:33:12.086Z,17.1
2019-05-28T21:34:03.233Z,17.1
2019-05-28T21:35:02.692Z,17.1
2019-05-28T21:39:02.984Z,16.9
2019-05-28T21:39:53.678Z,16.9
2019-05-28T21:40:43.098Z,16.9
2019-05-28T21:41:32.743Z,16.9
2019-05-28T21:42:23.078Z,16.9
2019-05-28T21:43:12.325Z,16.9
2019-05-28T21:44:03.741Z,16.9
2019-05-28T21:44:54.578Z,16.8
2019-05-28T21:45:43.393Z,16.8
2019-05-28T21:46:33.182Z,16.8
2019-05-28T21:47:23.462Z,16.8
2019-05-28T21:48:13.307Z,16.8
2019-05-28T21:49:04.555Z,16.8
2019-05-28T21:49:55.085Z,16.8
2019-05-28T21:50:43.730Z,16.8
2019-05-28T21:51:33.507Z,16.7
2019-05-28T21:52:23.877Z,16.7
2019-05-28T21:53:13.641Z,16.7
2019-05-28T21:54:04.522Z,16.7
2019-05-28T21:54:55.538Z,16.7
2019-05-28T21:55:44.102Z,16.6
2019-05-28T21:56:33.906Z,16.6
2019-05-28T21:57:24.230Z,16.6
2019-05-28T21:58:14.323Z,16.6
2019-05-28T21:59:05.306Z,16.6
2019-05-28T21:59:56.167Z,16.6
2019-05-28T22:00:44.226Z,16.6
2019-05-28T22:01:34.579Z,16.6
2019-05-28T22:02:24.627Z,16.5
2019-05-28T22:03:14.674Z,16.5
2019-05-28T22:04:04.822Z,16.5
2019-05-28T22:04:55.809Z,16.5
2019-05-28T22:05:44.625Z,16.5
2019-05-28T22:06:34.949Z,16.5
2019-05-28T22:07:25.006Z,16.4
2019-05-28T22:08:14.807Z,16.4
2019-05-28T22:09:05.367Z,16.4
2019-05-28T22:09:57.581Z,16.4
2019-05-28T22:10:45.004Z,16.4
2019-05-28T22:11:35.054Z,16.4
2019-05-28T22:12:25.116Z,16.4
2019-05-28T22:13:23.913Z,16.4
2019-05-28T22:14:05.779Z,16.4
2019-05-28T22:14:57.902Z,16.3
2019-05-28T22:15:45.671Z,16.3
2019-05-28T22:16:35.444Z,16.3
2019-05-28T22:17:25.249Z,16.3
2019-05-28T22:18:15.589Z,16.3
2019-05-28T22:19:06.178Z,16.3
2019-05-28T22:19:56.738Z,16.3
2019-05-28T22:20:45.766Z,16.3
2019-05-28T22:21:36.103Z,16.3
2019-05-28T22:22:26.178Z,16.3
2019-05-28T22:23:16.226Z,16.3
2019-05-28T22:24:06.473Z,16.3
2019-05-28T22:24:58.466Z,16.3
2019-05-28T22:25:46.154Z,16.3
2019-05-28T22:26:36.226Z,16.3
2019-05-28T22:27:26.563Z,16.2
2019-05-28T22:28:16.628Z,16.2
2019-05-28T22:29:06.415Z,16.2
2019-05-28T22:29:59.036Z,16.2
2019-05-28T22:30:46.829Z,16.2
2019-05-28T22:31:36.608Z,16.2
2019-05-28T22:32:26.965Z,16.2
2019-05-28T22:33:16.738Z,16.2
2019-05-28T22:34:08.337Z,16.2
2019-05-28T22:34:58.405Z,16.2
2019-05-28T22:35:47.221Z,16.2
2019-05-28T22:36:37.001Z,16.2
2019-05-28T22:37:27.338Z,16.2
2019-05-28T22:38:17.137Z,16.2
2019-05-28T22:39:08.658Z,16.2
2019-05-28T22:39:59.799Z,16.2
2019-05-28T22:40:47.595Z,16.2
2019-05-28T22:41:37.658Z,16.1
2019-05-28T22:42:27.715Z,16.1
2019-05-28T22:43:33.184Z,16.1
2019-05-28T22:44:58.705Z,16.1
2019-05-28T22:45:47.989Z,16.1
2019-05-28T22:46:37.494Z,16.1
2019-05-28T22:47:27.854Z,16.1
2019-05-28T22:48:19.504Z,16.1
2019-05-28T22:49:08.714Z,16.1
2019-05-28T22:50:24.174Z,16.1
2019-05-28T22:51:38.439Z,16.1
2019-05-28T22:52:28.494Z,16.1
2019-05-28T22:53:18.021Z,16.1
2019-05-28T22:54:09.256Z,16.1
2019-05-28T22:55:00.286Z,16.1
2019-05-28T22:55:48.759Z,16.1
2019-05-28T22:56:38.831Z,16.1
2019-05-28T22:57:28.645Z,16.1
2019-05-28T22:58:18.964Z,16.1
2019-05-28T22:59:09.786Z,16.1
2019-05-28T23:00:00.581Z,16.1
2019-05-28T23:00:48.866Z,16.1
2019-05-28T23:01:38.974Z,16.1
2019-05-28T23:02:28.998Z,16.1
2019-05-28T23:03:19.340Z,16.1
2019-05-28T23:04:10.601Z,16.1
2019-05-28T23:05:01.524Z,16.1
2019-05-28T23:05:49.260Z,16.1
2019-05-28T23:06:39.310Z,16.1
2019-05-28T23:07:29.382Z,16.1
2019-05-28T23:08:19.450Z,16.1
2019-05-28T23:09:10.563Z,16.1
2019-05-28T23:10:03.528Z,16.1
2019-05-28T23:10:49.927Z,16.1
2019-05-28T23:11:39.702Z,16.1
2019-05-28T23:12:29.773Z,16.1
2019-05-28T23:13:20.113Z,16.1
2019-05-28T23:14:10.966Z,16.1
2019-05-28T23:15:01.956Z,16
2019-05-28T23:15:50.320Z,16.1
2019-05-28T23:16:40.099Z,16.1
2019-05-28T23:17:30.165Z,16
2019-05-28T23:18:20.500Z,16
2019-05-28T23:19:12.049Z,16
2019-05-28T23:20:04.610Z,16
2019-05-28T23:20:50.690Z,16
2019-05-28T23:21:40.755Z,16
2019-05-28T23:22:30.834Z,16
2019-05-28T23:23:20.604Z,16
2019-05-28T23:24:12.099Z,16
2019-05-28T23:25:03.241Z,16
2019-05-28T23:25:50.808Z,16
2019-05-28T23:26:41.159Z,15.9
2019-05-28T23:27:30.927Z,15.9
2019-05-28T23:28:20.767Z,15.9